EH8 weather

CLOSED Holman Water Aerodrome
Ulukhaktok, Northwest Territories, Canada

Public forecast

Using degrees Celsius for public forecast. Weather courtesy of forecast.io.

METAR (pilot weather report)

Report is more than 6 hours old.

Closest report is Ulukhaktok Holman Airport, 1.9 nm (3.5 km) NNW. Retrieved 2019/04/19 00:00 UTC (3 days ago):

CYHI 190000Z 32002KT 15SM FEW015 FEW230 M09/M19 A2995 RMK SC1CS1 SC TR CS TR /S 00/ AFT 18Z / MED PACK / LST STFD OBS / NXT 201400Z SLP148

TAF (pilot weather forecast)

Closest forecast is Ulukhaktok Holman Airport, 1.9 nm (3.5 km) NNW. Retrieved 2019/04/21 16:00 UTC (2 hours ago):

TAF CYHI 211538Z 2116/2119 FCST NOT AVBL DUE NO OBS RMK NXT FCST WILL BE ISSUED AT 221545Z